• Join FlightAware (Why Join?)
  • Login
  • US Flag 
09:08AM EDT


 

Airport Tracker/Info


-or-


 

Live Flight TrackerFlight Track Log ✈ N830QS ✈ 12-Jan-2014 ✈ KHXD - KCKM

Flight Track Log - Related Links

Times and Time Zones

All times are in EST time to prevent confusion due to time zone crossing. See the N830QS flight status page for this flight to view local times or setup timezone preferences in your user account.

Time Position Orientation Groundspeed Altitude Reporting Facility
EST Latitude Longitude Course Direction KTS MPH feet Rate Location/Type
06:06AM 32.1867 -80.7864 287° West 199 229 4,700  Level Jacksonville Center
06:07AM 32.1792 -80.8431 261° West 204 235 7,700 2,520 Climbing Jacksonville Center
06:08AM 32.1658 -80.9219 259° West 239 275 9,800 3,120 Climbing Jacksonville Center
06:09AM 32.1439 -80.9983 251° West 239 275 14,000 3,300 Climbing Jacksonville Center
06:10AM 32.1514 -81.0742 277° West 239 275 16,500 2,460 Climbing Jacksonville Center
06:11AM 32.1669 -81.1500 284° West 239 275 19,000 2,700 Climbing Jacksonville Center
06:12AM 32.3658 -81.2551 287° West  Level Estimated
06:12AM 32.1869 -81.2331 286° West 244 281 21,900  Level Jacksonville Center
06:13AM 32.2025 -81.3139 283° West 250 288 24,200 2,220 Climbing Jacksonville Center
06:15AM 32.2375 -81.4703 285° West 267 307 27,900 2,040 Climbing Atlanta Center
06:16AM 32.2583 -81.5681 284° West 285 328 29,800 2,040 Climbing Atlanta Center
06:17AM 32.2767 -81.6583 284° West 291 335 32,000 1,500 Climbing Atlanta Center
06:18AM 32.2994 -81.7586 285° West 304 350 32,900 1,680 Climbing Atlanta Center
06:19AM 32.3181 -81.8564 283° West 304 350 35,400 1,500 Climbing Atlanta Center
06:20AM 32.3383 -81.9492 285° West 298 343 36,000 300 Climbing Atlanta Center
06:21AM 32.3586 -82.0397 285° West 298 343 36,000  Level Atlanta Center
06:22AM 32.3789 -82.1353 284° West 298 343 36,000  Level Atlanta Center
06:23AM 32.3972 -82.2358 282° West 298 343 36,000  Level Atlanta Center
06:24AM 32.4172 -82.3289 284° West 298 343 36,000  Level Atlanta Center
06:25AM 32.4372 -82.4244 284° West 298 343 36,000  Level Atlanta Center
06:26AM 32.4656 -82.5222 289° West 298 343 36,000  Level Atlanta Center
06:27AM 32.4939 -82.6153 290° West 298 343 36,000  Level Atlanta Center
06:28AM 32.5222 -82.7111 289° West 304 350 36,000  Level Atlanta Center
06:29AM 32.5503 -82.8067 289° West 304 350 36,000  Level Atlanta Center
06:30AM 32.5783 -82.9025 289° West 304 350 36,000  Level Atlanta Center
06:31AM 32.6083 -82.9908 292° West 309 356 36,000  Level Atlanta Center
06:32AM 32.6364 -83.0892 289° West 309 356 36,000  Level Atlanta Center
06:33AM 32.6642 -83.1825 289° West 309 356 36,000  Level Atlanta Center
06:34AM 32.6939 -83.2861 289° West 309 356 36,000  Level Atlanta Center
06:35AM 32.7217 -83.3819 289° West 309 356 36,000  Level Atlanta Center
06:36AM 32.7492 -83.4806 288° West 314 361 36,000  Level Atlanta Center
06:37AM 32.7789 -83.5817 289° West 314 361 36,000  Level Atlanta Center
06:38AM 32.8064 -83.6806 288° West 319 367 36,000  Level Atlanta Center
06:39AM 32.8339 -83.7817 288° West 324 373 36,000  Level Atlanta Center
06:40AM 32.8611 -83.8856 287° West 324 373 36,000  Level Atlanta Center
06:41AM 32.8864 -83.9869 287° West 324 373 36,000  Level Atlanta Center
06:42AM 32.9114 -84.0908 286° West 324 373 36,000  Level Atlanta Center
06:43AM 32.9383 -84.2072 285° West 329 379 36,000  Level Atlanta Center
06:44AM 32.9633 -84.3111 286° West 334 384 36,000  Level Atlanta Center
06:45AM 32.9881 -84.4178 285° West 334 384 36,000  Level Atlanta Center
06:46AM 33.0147 -84.5194 287° West 327 376 36,000  Level Atlanta Center
06:47AM 33.0414 -84.6236 287° West 327 376 36,000  Level Atlanta Center
06:48AM 33.0619 -84.7181 285° West 327 376 36,000  Level Atlanta Center
06:49AM 33.0883 -84.8247 286° West 327 376 36,000  Level Atlanta Center
06:50AM 33.1169 -84.9317 288° West 327 376 36,000  Level Atlanta Center
06:51AM 33.1389 -85.0336 284° West 327 376 36,000  Level Atlanta Center
06:52AM 33.1653 -85.1406 286° West 327 376 36,000  Level Atlanta Center
06:53AM 33.1933 -85.2578 286° West 333 383 36,000  Level Atlanta Center
06:54AM 33.2172 -85.3647 285° West 338 389 36,000  Level Atlanta Center
06:55AM 33.2433 -85.4719 286° West 333 383 36,000  Level Atlanta Center
06:56AM 33.2672 -85.5692 286° West 328 377 36,000  Level Atlanta Center
06:57AM 33.2908 -85.6767 285° West 323 372 36,000  Level Atlanta Center
06:58AM 33.3183 -85.7914 286° West 330 380 36,000  Level Atlanta Center
06:59AM 33.3419 -85.8914 286° West 330 380 36,000  Level Atlanta Center
07:00AM 33.3653 -85.9989 285° West 335 386 36,000  Level Atlanta Center
07:01AM 33.3928 -86.1114 286° West 341 392 36,000  Level Atlanta Center
07:02AM 33.4158 -86.2189 284° West 341 392 36,000  Level Atlanta Center
07:03AM 33.4392 -86.3267 285° West 335 386 36,000  Level Atlanta Center
07:04AM 33.4603 -86.4167 286° West 335 386 36,000  Level Atlanta Center
07:05AM 33.4831 -86.5344 283° West 335 386 36,000  Level Atlanta Center
07:06AM 33.5081 -86.6422 286° West 341 392 36,000  Level Atlanta Center
07:07AM 33.5325 -86.7553 285° West 341 392 36,000  Level Atlanta Center
07:08AM 33.5550 -86.8681 283° West 341 392 36,000  Level Atlanta Center
07:09AM 33.5839 -86.9811 287° West 341 392 36,000  Level Atlanta Center
07:10AM 33.6081 -87.0942 284° West 346 398 36,000  Level Atlanta Center
07:12AM 33.6472 -87.2742 285° West 351 404 36,000  Level Memphis Center
07:13AM 33.6719 -87.3881 285° West 352 405 36,000  Level Memphis Center
07:14AM 33.6956 -87.5011 284° West 350 403 36,000  Level Memphis Center
07:15AM 33.7194 -87.6144 284° West 349 402 36,000  Level Memphis Center
07:16AM 33.7442 -87.7272 285° West 348 400 36,000  Level Memphis Center
07:17AM 33.7672 -87.8403 284° West 348 400 36,000  Level Memphis Center
07:18AM 33.7919 -87.9533 285° West 348 400 36,000  Level Memphis Center
07:19AM 33.8153 -88.0658 284° West 347 399 36,000  Level Memphis Center
07:20AM 33.8383 -88.1794 284° West 348 400 36,000  Level Memphis Center
07:21AM 33.8622 -88.2939 284° West 352 405 36,000 -720 Level Memphis Center
07:22AM 33.8867 -88.4086 284° West 353 406 34,600 -1,680 Descending Memphis Center
07:23AM 33.9097 -88.5258 283° West 358 412 32,700 -1,920 Descending Memphis Center
07:24AM 33.9342 -88.6444 284° West 363 418 30,800 -1,920 Descending Memphis Center
07:25AM 33.9581 -88.7600 284° West 358 412 28,900 -1,980 Descending Memphis Center
07:26AM 33.9833 -88.8856 284° West 364 419 26,900 -2,040 Descending Memphis Center
07:27AM 34.0081 -89.0053 284° West 364 419 24,900 -1,980 Descending Memphis Center
07:28AM 34.0311 -89.1228 283° West 360 414 23,000 -2,040 Descending Memphis Center
07:29AM 34.0544 -89.2364 284° West 350 403 20,900 -1,980 Descending Memphis Center
07:30AM 34.0767 -89.3511 283° West 348 400 19,100 -1,740 Descending Memphis Center
07:31AM 34.0989 -89.4628 284° West 343 395 17,500 -1,740 Descending Memphis Center
07:32AM 34.1192 -89.5725 283° West 336 387 15,700 -1,740 Descending Memphis Center
07:33AM 34.1406 -89.6794 284° West 329 379 14,000 -1,740 Descending Memphis Center
07:34AM 34.1603 -89.7828 283° West 320 368 12,300 -1,680 Descending Memphis Center
07:35AM 34.1794 -89.8833 283° West 311 358 10,700 -1,560 Descending Memphis Center
07:36AM 34.1956 -89.9692 283° West 281 323 9,200 -1,560 Descending Memphis Center
07:37AM 34.2119 -90.0492 284° West 253 291 7,600 -1,560 Descending Memphis Center
07:38AM 34.2253 -90.1225 282° West 232 267 6,100 -1,500 Descending Memphis Center
07:39AM 34.2392 -90.1933 283° West 220 253 4,600 -1,500 Descending Memphis Center
07:40AM 34.2517 -90.2594 283° West 207 238 3,100 -1,320 Descending Memphis Center
07:41AM 34.2636 -90.3231 283° West 198 228 2,000 -1,140 Descending Memphis Center